sensor_id;sensor_type;location;lat;lon;timestamp;P1;durP1;ratioP1;P2;durP2;ratioP2
8831;SDS011;4452;50.756;4.472;2023-04-03T00:02:07;19.20;;;9.38;;
8831;SDS011;4452;50.756;4.472;2023-04-03T00:04:32;13.07;;;8.60;;
8831;SDS011;4452;50.756;4.472;2023-04-03T00:06:58;13.57;;;8.55;;
8831;SDS011;4452;50.756;4.472;2023-04-03T00:09:24;13.15;;;8.93;;
8831;SDS011;4452;50.756;4.472;2023-04-03T00:11:50;17.88;;;9.35;;
8831;SDS011;4452;50.756;4.472;2023-04-03T00:14:15;14.25;;;9.30;;
8831;SDS011;4452;50.756;4.472;2023-04-03T00:16:41;13.55;;;9.18;;
8831;SDS011;4452;50.756;4.472;2023-04-03T00:19:07;9.90;;;6.57;;
8831;SDS011;4452;50.756;4.472;2023-04-03T00:21:32;16.63;;;6.88;;
8831;SDS011;4452;50.756;4.472;2023-04-03T00:23:58;14.38;;;8.02;;
8831;SDS011;4452;50.756;4.472;2023-04-03T00:26:24;10.98;;;8.50;;
8831;SDS011;4452;50.756;4.472;2023-04-03T00:28:49;17.48;;;8.50;;
8831;SDS011;4452;50.756;4.472;2023-04-03T00:31:15;12.65;;;7.88;;
8831;SDS011;4452;50.756;4.472;2023-04-03T00:33:41;15.18;;;7.93;;
8831;SDS011;4452;50.756;4.472;2023-04-03T00:36:08;10.63;;;7.97;;
8831;SDS011;4452;50.756;4.472;2023-04-03T00:38:35;8.48;;;6.97;;
8831;SDS011;4452;50.756;4.472;2023-04-03T00:41:01;10.65;;;6.97;;
8831;SDS011;4452;50.756;4.472;2023-04-03T00:43:27;9.50;;;6.75;;
8831;SDS011;4452;50.756;4.472;2023-04-03T00:45:54;10.90;;;6.40;;
8831;SDS011;4452;50.756;4.472;2023-04-03T00:48:28;11.27;;;8.73;;
8831;SDS011;4452;50.756;4.472;2023-04-03T00:51:06;9.27;;;8.27;;
8831;SDS011;4452;50.756;4.472;2023-04-03T00:53:44;11.73;;;8.43;;
8831;SDS011;4452;50.756;4.472;2023-04-03T00:56:15;14.18;;;8.68;;
8831;SDS011;4452;50.756;4.472;2023-04-03T00:58:53;11.07;;;7.43;;
8831;SDS011;4452;50.756;4.472;2023-04-03T01:01:24;13.88;;;8.82;;
8831;SDS011;4452;50.756;4.472;2023-04-03T01:03:51;14.27;;;9.43;;
8831;SDS011;4452;50.756;4.472;2023-04-03T01:06:19;14.15;;;8.23;;
8831;SDS011;4452;50.756;4.472;2023-04-03T01:08:48;11.63;;;7.15;;
8831;SDS011;4452;50.756;4.472;2023-04-03T01:11:15;15.27;;;7.70;;
8831;SDS011;4452;50.756;4.472;2023-04-03T01:13:42;9.20;;;7.63;;
8831;SDS011;4452;50.756;4.472;2023-04-03T01:16:08;10.05;;;8.00;;
8831;SDS011;4452;50.756;4.472;2023-04-03T01:18:34;11.18;;;7.75;;
8831;SDS011;4452;50.756;4.472;2023-04-03T01:26:37;9.13;;;6.63;;
8831;SDS011;4452;50.756;4.472;2023-04-03T01:29:03;12.57;;;8.15;;
8831;SDS011;4452;50.756;4.472;2023-04-03T01:34:00;10.45;;;7.78;;
8831;SDS011;4452;50.756;4.472;2023-04-03T01:36:28;10.68;;;7.60;;
8831;SDS011;4452;50.756;4.472;2023-04-03T01:38:55;11.30;;;7.80;;
8831;SDS011;4452;50.756;4.472;2023-04-03T01:41:21;18.02;;;9.68;;
8831;SDS011;4452;50.756;4.472;2023-04-03T01:43:47;17.23;;;8.93;;
8831;SDS011;4452;50.756;4.472;2023-04-03T01:46:14;13.93;;;8.93;;
8831;SDS011;4452;50.756;4.472;2023-04-03T01:48:41;10.95;;;8.52;;
8831;SDS011;4452;50.756;4.472;2023-04-03T01:51:06;11.70;;;9.00;;
8831;SDS011;4452;50.756;4.472;2023-04-03T01:53:32;13.85;;;8.80;;
8831;SDS011;4452;50.756;4.472;2023-04-03T01:55:58;9.30;;;7.05;;
8831;SDS011;4452;50.756;4.472;2023-04-03T01:58:23;15.90;;;9.13;;
8831;SDS011;4452;50.756;4.472;2023-04-03T02:00:50;18.20;;;8.07;;
8831;SDS011;4452;50.756;4.472;2023-04-03T02:03:16;12.10;;;8.77;;
8831;SDS011;4452;50.756;4.472;2023-04-03T02:05:41;16.42;;;9.20;;
8831;SDS011;4452;50.756;4.472;2023-04-03T02:08:07;13.07;;;9.55;;
8831;SDS011;4452;50.756;4.472;2023-04-03T02:10:33;14.88;;;9.02;;
8831;SDS011;4452;50.756;4.472;2023-04-03T02:12:58;15.25;;;9.23;;
8831;SDS011;4452;50.756;4.472;2023-04-03T02:15:24;13.05;;;8.30;;
8831;SDS011;4452;50.756;4.472;2023-04-03T02:17:50;13.38;;;9.27;;
8831;SDS011;4452;50.756;4.472;2023-04-03T02:20:16;21.58;;;9.75;;
8831;SDS011;4452;50.756;4.472;2023-04-03T02:22:42;16.15;;;9.38;;
8831;SDS011;4452;50.756;4.472;2023-04-03T02:25:07;16.65;;;9.07;;
8831;SDS011;4452;50.756;4.472;2023-04-03T02:27:33;15.25;;;9.20;;
8831;SDS011;4452;50.756;4.472;2023-04-03T02:30:00;15.13;;;8.45;;
8831;SDS011;4452;50.756;4.472;2023-04-03T02:32:25;11.93;;;8.15;;
8831;SDS011;4452;50.756;4.472;2023-04-03T02:34:51;8.63;;;6.40;;
8831;SDS011;4452;50.756;4.472;2023-04-03T02:37:17;18.02;;;9.88;;
8831;SDS011;4452;50.756;4.472;2023-04-03T02:39:42;14.20;;;9.57;;
8831;SDS011;4452;50.756;4.472;2023-04-03T02:42:08;13.38;;;8.57;;
8831;SDS011;4452;50.756;4.472;2023-04-03T02:44:34;13.75;;;9.55;;
8831;SDS011;4452;50.756;4.472;2023-04-03T02:47:00;13.68;;;9.98;;
8831;SDS011;4452;50.756;4.472;2023-04-03T02:49:26;14.32;;;8.38;;
8831;SDS011;4452;50.756;4.472;2023-04-03T02:51:51;17.40;;;10.38;;
8831;SDS011;4452;50.756;4.472;2023-04-03T02:54:17;15.27;;;9.40;;
8831;SDS011;4452;50.756;4.472;2023-04-03T02:56:43;20.10;;;10.00;;
8831;SDS011;4452;50.756;4.472;2023-04-03T02:59:08;14.20;;;9.88;;
8831;SDS011;4452;50.756;4.472;2023-04-03T03:01:34;14.77;;;9.82;;
8831;SDS011;4452;50.756;4.472;2023-04-03T03:04:00;15.82;;;10.15;;
8831;SDS011;4452;50.756;4.472;2023-04-03T03:06:26;16.45;;;9.43;;
8831;SDS011;4452;50.756;4.472;2023-04-03T03:08:52;17.65;;;10.30;;
8831;SDS011;4452;50.756;4.472;2023-04-03T03:11:18;19.08;;;10.48;;
8831;SDS011;4452;50.756;4.472;2023-04-03T03:13:44;17.05;;;10.20;;
8831;SDS011;4452;50.756;4.472;2023-04-03T03:16:09;16.67;;;10.80;;
8831;SDS011;4452;50.756;4.472;2023-04-03T03:18:35;14.73;;;10.38;;
8831;SDS011;4452;50.756;4.472;2023-04-03T03:21:01;22.90;;;11.05;;
8831;SDS011;4452;50.756;4.472;2023-04-03T03:23:28;19.73;;;10.13;;
8831;SDS011;4452;50.756;4.472;2023-04-03T03:25:57;18.55;;;10.68;;
8831;SDS011;4452;50.756;4.472;2023-04-03T03:28:25;16.33;;;10.73;;
8831;SDS011;4452;50.756;4.472;2023-04-03T03:30:50;20.25;;;10.25;;
8831;SDS011;4452;50.756;4.472;2023-04-03T03:33:16;18.13;;;11.02;;
8831;SDS011;4452;50.756;4.472;2023-04-03T03:35:42;20.95;;;11.45;;
8831;SDS011;4452;50.756;4.472;2023-04-03T03:38:08;18.73;;;11.50;;
8831;SDS011;4452;50.756;4.472;2023-04-03T03:40:34;17.90;;;11.13;;
8831;SDS011;4452;50.756;4.472;2023-04-03T03:43:00;19.15;;;11.50;;
8831;SDS011;4452;50.756;4.472;2023-04-03T03:45:25;18.52;;;10.57;;
8831;SDS011;4452;50.756;4.472;2023-04-03T03:47:51;18.50;;;11.32;;
8831;SDS011;4452;50.756;4.472;2023-04-03T03:50:17;18.80;;;10.55;;
8831;SDS011;4452;50.756;4.472;2023-04-03T03:52:42;15.70;;;11.02;;
8831;SDS011;4452;50.756;4.472;2023-04-03T03:55:08;16.63;;;11.20;;
8831;SDS011;4452;50.756;4.472;2023-04-03T03:57:34;18.38;;;11.60;;
8831;SDS011;4452;50.756;4.472;2023-04-03T04:00:00;19.38;;;11.88;;
8831;SDS011;4452;50.756;4.472;2023-04-03T04:02:25;22.02;;;11.85;;
8831;SDS011;4452;50.756;4.472;2023-04-03T04:04:51;23.17;;;12.50;;
8831;SDS011;4452;50.756;4.472;2023-04-03T04:07:17;25.38;;;12.85;;
8831;SDS011;4452;50.756;4.472;2023-04-03T04:09:43;34.42;;;14.35;;
8831;SDS011;4452;50.756;4.472;2023-04-03T04:12:08;83.63;;;15.90;;
8831;SDS011;4452;50.756;4.472;2023-04-03T04:14:34;23.73;;;13.27;;
8831;SDS011;4452;50.756;4.472;2023-04-03T04:17:00;211.07;;;20.75;;
8831;SDS011;4452;50.756;4.472;2023-04-03T04:19:27;102.80;;;16.85;;
8831;SDS011;4452;50.756;4.472;2023-04-03T04:21:53;79.35;;;15.70;;
8831;SDS011;4452;50.756;4.472;2023-04-03T04:24:18;108.45;;;17.42;;
8831;SDS011;4452;50.756;4.472;2023-04-03T04:26:44;37.10;;;15.63;;
8831;SDS011;4452;50.756;4.472;2023-04-03T04:29:10;112.97;;;15.73;;
8831;SDS011;4452;50.756;4.472;2023-04-03T04:31:35;18.55;;;11.70;;
8831;SDS011;4452;50.756;4.472;2023-04-03T04:34:01;18.52;;;12.20;;
8831;SDS011;4452;50.756;4.472;2023-04-03T04:36:26;22.27;;;12.00;;
8831;SDS011;4452;50.756;4.472;2023-04-03T04:38:52;23.35;;;12.77;;
8831;SDS011;4452;50.756;4.472;2023-04-03T04:41:19;151.82;;;18.42;;
8831;SDS011;4452;50.756;4.472;2023-04-03T04:43:47;39.72;;;13.88;;
8831;SDS011;4452;50.756;4.472;2023-04-03T04:46:13;24.60;;;13.48;;
8831;SDS011;4452;50.756;4.472;2023-04-03T04:48:39;23.63;;;13.32;;
8831;SDS011;4452;50.756;4.472;2023-04-03T04:51:05;29.83;;;12.75;;
8831;SDS011;4452;50.756;4.472;2023-04-03T04:53:31;22.52;;;13.07;;
8831;SDS011;4452;50.756;4.472;2023-04-03T04:55:57;24.85;;;13.80;;
8831;SDS011;4452;50.756;4.472;2023-04-03T04:58:23;19.40;;;9.95;;
8831;SDS011;4452;50.756;4.472;2023-04-03T05:00:49;27.13;;;11.35;;
8831;SDS011;4452;50.756;4.472;2023-04-03T05:03:15;13.90;;;9.13;;
8831;SDS011;4452;50.756;4.472;2023-04-03T05:05:40;23.67;;;11.75;;
8831;SDS011;4452;50.756;4.472;2023-04-03T05:08:06;25.63;;;12.23;;
8831;SDS011;4452;50.756;4.472;2023-04-03T05:10:33;22.95;;;12.32;;
8831;SDS011;4452;50.756;4.472;2023-04-03T05:12:59;20.70;;;12.82;;
8831;SDS011;4452;50.756;4.472;2023-04-03T05:15:25;24.60;;;13.55;;
8831;SDS011;4452;50.756;4.472;2023-04-03T05:17:50;24.08;;;12.40;;
8831;SDS011;4452;50.756;4.472;2023-04-03T05:20:16;24.40;;;13.02;;
8831;SDS011;4452;50.756;4.472;2023-04-03T05:22:42;24.08;;;13.13;;
8831;SDS011;4452;50.756;4.472;2023-04-03T05:25:08;20.27;;;11.05;;
8831;SDS011;4452;50.756;4.472;2023-04-03T05:27:34;23.25;;;13.73;;
8831;SDS011;4452;50.756;4.472;2023-04-03T05:30:00;23.35;;;12.60;;
8831;SDS011;4452;50.756;4.472;2023-04-03T05:32:26;23.52;;;12.65;;
8831;SDS011;4452;50.756;4.472;2023-04-03T05:34:52;20.65;;;11.85;;
8831;SDS011;4452;50.756;4.472;2023-04-03T05:37:18;22.63;;;12.88;;
8831;SDS011;4452;50.756;4.472;2023-04-03T05:39:44;23.30;;;12.50;;
8831;SDS011;4452;50.756;4.472;2023-04-03T05:42:10;18.67;;;13.07;;
8831;SDS011;4452;50.756;4.472;2023-04-03T05:44:36;16.58;;;11.75;;
8831;SDS011;4452;50.756;4.472;2023-04-03T05:47:02;19.42;;;12.20;;
8831;SDS011;4452;50.756;4.472;2023-04-03T05:49:28;20.70;;;13.75;;
8831;SDS011;4452;50.756;4.472;2023-04-03T05:51:54;22.98;;;12.90;;
8831;SDS011;4452;50.756;4.472;2023-04-03T05:54:21;24.25;;;13.02;;
8831;SDS011;4452;50.756;4.472;2023-04-03T05:56:50;20.00;;;12.85;;
8831;SDS011;4452;50.756;4.472;2023-04-03T05:59:16;20.00;;;11.95;;
8831;SDS011;4452;50.756;4.472;2023-04-03T06:01:43;24.13;;;11.80;;
8831;SDS011;4452;50.756;4.472;2023-04-03T06:04:08;23.23;;;14.15;;
8831;SDS011;4452;50.756;4.472;2023-04-03T06:06:44;21.85;;;12.95;;
8831;SDS011;4452;50.756;4.472;2023-04-03T06:09:12;24.60;;;13.52;;
8831;SDS011;4452;50.756;4.472;2023-04-03T06:11:39;19.90;;;12.60;;
8831;SDS011;4452;50.756;4.472;2023-04-03T06:14:06;24.17;;;14.57;;
8831;SDS011;4452;50.756;4.472;2023-04-03T06:16:33;23.48;;;14.48;;
8831;SDS011;4452;50.756;4.472;2023-04-03T06:18:59;16.88;;;12.93;;
8831;SDS011;4452;50.756;4.472;2023-04-03T06:21:24;17.55;;;13.00;;
8831;SDS011;4452;50.756;4.472;2023-04-03T06:23:51;25.63;;;14.30;;
8831;SDS011;4452;50.756;4.472;2023-04-03T06:26:17;23.55;;;14.38;;
8831;SDS011;4452;50.756;4.472;2023-04-03T06:28:42;23.63;;;13.85;;
8831;SDS011;4452;50.756;4.472;2023-04-03T06:31:08;24.35;;;16.00;;
8831;SDS011;4452;50.756;4.472;2023-04-03T06:33:34;19.35;;;12.45;;
8831;SDS011;4452;50.756;4.472;2023-04-03T06:36:02;23.13;;;14.88;;
8831;SDS011;4452;50.756;4.472;2023-04-03T06:38:29;14.13;;;9.35;;
8831;SDS011;4452;50.756;4.472;2023-04-03T06:40:55;20.23;;;11.10;;
8831;SDS011;4452;50.756;4.472;2023-04-03T06:43:21;17.60;;;11.68;;
8831;SDS011;4452;50.756;4.472;2023-04-03T06:45:47;21.92;;;12.70;;
8831;SDS011;4452;50.756;4.472;2023-04-03T06:48:12;20.58;;;12.52;;
8831;SDS011;4452;50.756;4.472;2023-04-03T06:50:38;24.45;;;14.52;;
8831;SDS011;4452;50.756;4.472;2023-04-03T06:53:04;23.17;;;13.70;;
8831;SDS011;4452;50.756;4.472;2023-04-03T06:55:30;32.25;;;15.00;;
8831;SDS011;4452;50.756;4.472;2023-04-03T06:57:56;13.90;;;9.90;;
8831;SDS011;4452;50.756;4.472;2023-04-03T07:00:22;20.35;;;12.45;;
8831;SDS011;4452;50.756;4.472;2023-04-03T07:02:48;19.42;;;13.18;;
8831;SDS011;4452;50.756;4.472;2023-04-03T07:05:13;21.10;;;13.30;;
8831;SDS011;4452;50.756;4.472;2023-04-03T07:07:39;17.15;;;12.65;;
8831;SDS011;4452;50.756;4.472;2023-04-03T07:10:06;21.65;;;14.65;;
8831;SDS011;4452;50.756;4.472;2023-04-03T07:12:32;20.30;;;12.48;;
8831;SDS011;4452;50.756;4.472;2023-04-03T07:14:58;21.52;;;14.52;;
8831;SDS011;4452;50.756;4.472;2023-04-03T07:17:24;26.10;;;14.43;;
8831;SDS011;4452;50.756;4.472;2023-04-03T07:19:50;18.35;;;11.15;;
8831;SDS011;4452;50.756;4.472;2023-04-03T07:22:16;27.42;;;15.15;;
8831;SDS011;4452;50.756;4.472;2023-04-03T07:24:42;25.52;;;15.50;;
8831;SDS011;4452;50.756;4.472;2023-04-03T07:27:08;24.10;;;14.82;;
8831;SDS011;4452;50.756;4.472;2023-04-03T07:29:35;24.13;;;13.75;;
8831;SDS011;4452;50.756;4.472;2023-04-03T07:32:01;20.50;;;15.23;;
8831;SDS011;4452;50.756;4.472;2023-04-03T07:34:27;22.48;;;15.27;;
8831;SDS011;4452;50.756;4.472;2023-04-03T07:36:53;17.70;;;12.05;;
8831;SDS011;4452;50.756;4.472;2023-04-03T07:39:19;14.15;;;9.90;;
8831;SDS011;4452;50.756;4.472;2023-04-03T07:41:45;19.73;;;11.32;;
8831;SDS011;4452;50.756;4.472;2023-04-03T07:44:10;19.60;;;13.40;;
8831;SDS011;4452;50.756;4.472;2023-04-03T07:46:36;24.08;;;12.98;;
8831;SDS011;4452;50.756;4.472;2023-04-03T07:49:02;19.25;;;12.70;;
8831;SDS011;4452;50.756;4.472;2023-04-03T07:51:28;14.25;;;9.93;;
8831;SDS011;4452;50.756;4.472;2023-04-03T07:53:55;13.77;;;11.90;;
8831;SDS011;4452;50.756;4.472;2023-04-03T07:56:20;25.00;;;12.05;;
8831;SDS011;4452;50.756;4.472;2023-04-03T07:58:46;18.23;;;12.15;;
8831;SDS011;4452;50.756;4.472;2023-04-03T08:01:13;20.02;;;11.45;;
8831;SDS011;4452;50.756;4.472;2023-04-03T08:03:39;12.52;;;10.43;;
8831;SDS011;4452;50.756;4.472;2023-04-03T08:06:05;16.85;;;10.60;;
8831;SDS011;4452;50.756;4.472;2023-04-03T08:08:33;16.60;;;10.15;;
8831;SDS011;4452;50.756;4.472;2023-04-03T08:11:00;19.48;;;12.70;;
8831;SDS011;4452;50.756;4.472;2023-04-03T08:13:27;15.13;;;10.27;;
8831;SDS011;4452;50.756;4.472;2023-04-03T08:15:53;12.80;;;7.78;;
8831;SDS011;4452;50.756;4.472;2023-04-03T08:18:20;18.45;;;11.23;;
8831;SDS011;4452;50.756;4.472;2023-04-03T08:20:49;16.02;;;11.05;;
8831;SDS011;4452;50.756;4.472;2023-04-03T08:23:16;13.68;;;10.90;;
8831;SDS011;4452;50.756;4.472;2023-04-03T08:25:42;14.45;;;10.13;;
8831;SDS011;4452;50.756;4.472;2023-04-03T08:28:08;17.08;;;11.00;;
8831;SDS011;4452;50.756;4.472;2023-04-03T08:30:35;18.48;;;11.50;;
8831;SDS011;4452;50.756;4.472;2023-04-03T08:33:04;10.55;;;7.88;;
8831;SDS011;4452;50.756;4.472;2023-04-03T08:35:30;16.63;;;9.80;;
8831;SDS011;4452;50.756;4.472;2023-04-03T08:37:55;10.90;;;8.48;;
8831;SDS011;4452;50.756;4.472;2023-04-03T08:40:21;15.55;;;10.27;;
8831;SDS011;4452;50.756;4.472;2023-04-03T08:48:20;14.10;;;8.70;;
8831;SDS011;4452;50.756;4.472;2023-04-03T08:50:51;10.32;;;7.30;;
8831;SDS011;4452;50.756;4.472;2023-04-03T08:53:21;14.77;;;8.80;;
8831;SDS011;4452;50.756;4.472;2023-04-03T08:55:53;9.35;;;5.82;;
8831;SDS011;4452;50.756;4.472;2023-04-03T08:58:24;10.27;;;7.40;;
8831;SDS011;4452;50.756;4.472;2023-04-03T09:03:21;7.93;;;5.35;;
8831;SDS011;4452;50.756;4.472;2023-04-03T09:05:55;9.43;;;5.35;;
8831;SDS011;4452;50.756;4.472;2023-04-03T09:11:25;9.15;;;5.75;;
8831;SDS011;4452;50.756;4.472;2023-04-03T09:14:07;6.38;;;5.70;;
8831;SDS011;4452;50.756;4.472;2023-04-03T09:16:54;5.78;;;4.38;;
8831;SDS011;4452;50.756;4.472;2023-04-03T09:19:27;7.85;;;5.72;;
8831;SDS011;4452;50.756;4.472;2023-04-03T09:22:13;4.88;;;4.10;;
8831;SDS011;4452;50.756;4.472;2023-04-03T09:24:55;12.98;;;5.03;;
8831;SDS011;4452;50.756;4.472;2023-04-03T09:27:25;6.78;;;4.88;;
8831;SDS011;4452;50.756;4.472;2023-04-03T09:29:52;8.35;;;4.40;;
8831;SDS011;4452;50.756;4.472;2023-04-03T09:34:51;5.20;;;4.00;;
8831;SDS011;4452;50.756;4.472;2023-04-03T09:42:53;7.05;;;3.63;;
8831;SDS011;4452;50.756;4.472;2023-04-03T09:45:34;6.57;;;4.75;;
8831;SDS011;4452;50.756;4.472;2023-04-03T09:48:05;10.85;;;4.40;;
8831;SDS011;4452;50.756;4.472;2023-04-03T09:50:32;5.45;;;3.47;;
8831;SDS011;4452;50.756;4.472;2023-04-03T09:52:59;4.57;;;3.80;;
8831;SDS011;4452;50.756;4.472;2023-04-03T09:55:31;9.00;;;3.92;;
8831;SDS011;4452;50.756;4.472;2023-04-03T09:57:58;5.63;;;3.78;;
8831;SDS011;4452;50.756;4.472;2023-04-03T10:00:36;5.18;;;4.32;;
8831;SDS011;4452;50.756;4.472;2023-04-03T10:03:04;9.85;;;4.43;;
8831;SDS011;4452;50.756;4.472;2023-04-03T10:05:46;5.55;;;3.33;;
8831;SDS011;4452;50.756;4.472;2023-04-03T10:10:44;4.38;;;3.67;;
8831;SDS011;4452;50.756;4.472;2023-04-03T10:13:13;8.48;;;3.67;;
8831;SDS011;4452;50.756;4.472;2023-04-03T10:15:46;6.45;;;3.60;;
8831;SDS011;4452;50.756;4.472;2023-04-03T10:24:07;4.50;;;3.35;;
8831;SDS011;4452;50.756;4.472;2023-04-03T10:26:41;3.10;;;2.80;;
8831;SDS011;4452;50.756;4.472;2023-04-03T10:34:42;3.47;;;3.10;;
8831;SDS011;4452;50.756;4.472;2023-04-03T10:42:58;5.57;;;4.15;;
8831;SDS011;4452;50.756;4.472;2023-04-03T10:46:00;12.38;;;4.22;;
8831;SDS011;4452;50.756;4.472;2023-04-03T10:54:19;8.73;;;3.40;;
8831;SDS011;4452;50.756;4.472;2023-04-03T10:56:51;5.10;;;3.22;;
8831;SDS011;4452;50.756;4.472;2023-04-03T10:59:32;4.60;;;3.30;;
8831;SDS011;4452;50.756;4.472;2023-04-03T11:02:04;4.10;;;3.33;;
8831;SDS011;4452;50.756;4.472;2023-04-03T11:04:37;6.43;;;3.15;;
8831;SDS011;4452;50.756;4.472;2023-04-03T11:09:46;3.88;;;3.13;;
8831;SDS011;4452;50.756;4.472;2023-04-03T11:12:31;8.27;;;2.92;;
8831;SDS011;4452;50.756;4.472;2023-04-03T11:15:18;7.20;;;2.95;;
8831;SDS011;4452;50.756;4.472;2023-04-03T11:17:56;5.47;;;3.08;;
8831;SDS011;4452;50.756;4.472;2023-04-03T11:20:27;6.22;;;3.03;;
8831;SDS011;4452;50.756;4.472;2023-04-03T11:25:32;3.03;;;2.42;;
8831;SDS011;4452;50.756;4.472;2023-04-03T11:28:03;5.40;;;2.75;;
8831;SDS011;4452;50.756;4.472;2023-04-03T11:38:35;6.32;;;3.50;;
8831;SDS011;4452;50.756;4.472;2023-04-03T11:41:06;3.40;;;2.67;;
8831;SDS011;4452;50.756;4.472;2023-04-03T11:43:34;4.05;;;2.90;;
8831;SDS011;4452;50.756;4.472;2023-04-03T11:46:22;4.30;;;2.65;;
8831;SDS011;4452;50.756;4.472;2023-04-03T11:49:31;3.00;;;2.28;;
8831;SDS011;4452;50.756;4.472;2023-04-03T11:57:22;4.22;;;2.47;;
8831;SDS011;4452;50.756;4.472;2023-04-03T12:01:08;2.35;;;2.15;;
8831;SDS011;4452;50.756;4.472;2023-04-03T12:13:37;4.80;;;2.92;;
8831;SDS011;4452;50.756;4.472;2023-04-03T12:16:04;6.28;;;2.65;;
8831;SDS011;4452;50.756;4.472;2023-04-03T12:21:16;3.92;;;2.85;;
8831;SDS011;4452;50.756;4.472;2023-04-03T12:23:56;3.33;;;2.38;;
8831;SDS011;4452;50.756;4.472;2023-04-03T12:37:20;3.97;;;2.75;;
8831;SDS011;4452;50.756;4.472;2023-04-03T12:46:07;4.75;;;2.65;;
8831;SDS011;4452;50.756;4.472;2023-04-03T12:51:09;2.38;;;2.17;;
8831;SDS011;4452;50.756;4.472;2023-04-03T12:53:58;5.25;;;2.30;;
8831;SDS011;4452;50.756;4.472;2023-04-03T12:56:28;2.83;;;2.58;;
8831;SDS011;4452;50.756;4.472;2023-04-03T12:59:12;2.90;;;2.42;;
8831;SDS011;4452;50.756;4.472;2023-04-03T13:01:37;3.88;;;2.05;;
8831;SDS011;4452;50.756;4.472;2023-04-03T13:04:03;3.03;;;2.17;;
8831;SDS011;4452;50.756;4.472;2023-04-03T13:06:40;6.43;;;2.60;;
8831;SDS011;4452;50.756;4.472;2023-04-03T13:09:17;2.50;;;2.30;;
8831;SDS011;4452;50.756;4.472;2023-04-03T13:12:00;5.00;;;2.28;;
8831;SDS011;4452;50.756;4.472;2023-04-03T13:14:28;2.97;;;2.20;;
8831;SDS011;4452;50.756;4.472;2023-04-03T13:17:09;2.70;;;2.13;;
8831;SDS011;4452;50.756;4.472;2023-04-03T13:19:41;2.55;;;2.35;;
8831;SDS011;4452;50.756;4.472;2023-04-03T13:22:11;2.53;;;2.15;;
8831;SDS011;4452;50.756;4.472;2023-04-03T13:25:05;2.17;;;1.70;;
8831;SDS011;4452;50.756;4.472;2023-04-03T13:27:32;2.50;;;2.30;;
8831;SDS011;4452;50.756;4.472;2023-04-03T13:29:59;8.13;;;2.83;;
8831;SDS011;4452;50.756;4.472;2023-04-03T13:32:27;2.10;;;1.90;;
8831;SDS011;4452;50.756;4.472;2023-04-03T13:34:54;2.28;;;2.08;;
8831;SDS011;4452;50.756;4.472;2023-04-03T13:37:25;4.13;;;2.75;;
8831;SDS011;4452;50.756;4.472;2023-04-03T13:40:02;2.65;;;2.00;;
8831;SDS011;4452;50.756;4.472;2023-04-03T13:42:32;4.75;;;2.35;;
8831;SDS011;4452;50.756;4.472;2023-04-03T13:45:10;2.38;;;2.00;;
8831;SDS011;4452;50.756;4.472;2023-04-03T13:47:40;2.47;;;1.98;;
8831;SDS011;4452;50.756;4.472;2023-04-03T13:57:52;4.60;;;2.40;;
8831;SDS011;4452;50.756;4.472;2023-04-03T14:03:12;5.57;;;2.42;;
8831;SDS011;4452;50.756;4.472;2023-04-03T14:05:59;3.40;;;2.38;;
8831;SDS011;4452;50.756;4.472;2023-04-03T14:08:26;3.08;;;2.13;;
8831;SDS011;4452;50.756;4.472;2023-04-03T14:10:52;3.60;;;2.67;;
8831;SDS011;4452;50.756;4.472;2023-04-03T14:13:18;3.63;;;2.50;;
8831;SDS011;4452;50.756;4.472;2023-04-03T14:15:46;3.15;;;2.40;;
8831;SDS011;4452;50.756;4.472;2023-04-03T14:18:14;2.50;;;2.17;;
8831;SDS011;4452;50.756;4.472;2023-04-03T14:20:42;2.05;;;1.92;;
8831;SDS011;4452;50.756;4.472;2023-04-03T14:23:08;2.92;;;2.60;;
8831;SDS011;4452;50.756;4.472;2023-04-03T14:25:34;6.75;;;2.95;;
8831;SDS011;4452;50.756;4.472;2023-04-03T14:28:00;5.95;;;2.58;;
8831;SDS011;4452;50.756;4.472;2023-04-03T14:30:28;2.22;;;2.08;;
8831;SDS011;4452;50.756;4.472;2023-04-03T14:32:58;2.30;;;2.20;;
8831;SDS011;4452;50.756;4.472;2023-04-03T14:35:25;4.20;;;2.30;;
8831;SDS011;4452;50.756;4.472;2023-04-03T14:37:51;2.75;;;2.55;;
8831;SDS011;4452;50.756;4.472;2023-04-03T14:40:23;5.45;;;2.60;;
8831;SDS011;4452;50.756;4.472;2023-04-03T14:42:50;2.90;;;2.50;;
8831;SDS011;4452;50.756;4.472;2023-04-03T14:45:16;3.17;;;2.55;;
8831;SDS011;4452;50.756;4.472;2023-04-03T14:47:50;4.03;;;2.40;;
8831;SDS011;4452;50.756;4.472;2023-04-03T14:50:19;2.38;;;2.17;;
8831;SDS011;4452;50.756;4.472;2023-04-03T14:52:50;5.07;;;2.42;;
8831;SDS011;4452;50.756;4.472;2023-04-03T14:55:19;6.72;;;2.65;;
8831;SDS011;4452;50.756;4.472;2023-04-03T14:57:47;3.10;;;2.38;;
8831;SDS011;4452;50.756;4.472;2023-04-03T15:00:17;2.50;;;2.30;;
8831;SDS011;4452;50.756;4.472;2023-04-03T15:02:44;2.40;;;2.30;;
8831;SDS011;4452;50.756;4.472;2023-04-03T15:05:11;5.13;;;2.78;;
8831;SDS011;4452;50.756;4.472;2023-04-03T15:07:41;6.78;;;2.40;;
8831;SDS011;4452;50.756;4.472;2023-04-03T15:12:48;2.95;;;2.47;;
8831;SDS011;4452;50.756;4.472;2023-04-03T15:15:14;2.63;;;2.35;;
8831;SDS011;4452;50.756;4.472;2023-04-03T15:17:41;2.80;;;2.60;;
8831;SDS011;4452;50.756;4.472;2023-04-03T15:20:13;2.75;;;2.55;;
8831;SDS011;4452;50.756;4.472;2023-04-03T15:22:40;4.38;;;2.60;;
8831;SDS011;4452;50.756;4.472;2023-04-03T15:25:06;5.30;;;2.80;;
8831;SDS011;4452;50.756;4.472;2023-04-03T15:27:33;2.97;;;2.67;;
8831;SDS011;4452;50.756;4.472;2023-04-03T15:29:59;3.85;;;2.95;;
8831;SDS011;4452;50.756;4.472;2023-04-03T15:32:25;6.05;;;2.70;;
8831;SDS011;4452;50.756;4.472;2023-04-03T15:34:50;4.57;;;2.40;;
8831;SDS011;4452;50.756;4.472;2023-04-03T15:37:16;6.05;;;2.88;;
8831;SDS011;4452;50.756;4.472;2023-04-03T15:39:42;2.70;;;2.33;;
8831;SDS011;4452;50.756;4.472;2023-04-03T15:42:07;4.18;;;3.00;;
8831;SDS011;4452;50.756;4.472;2023-04-03T15:44:33;4.18;;;2.70;;
8831;SDS011;4452;50.756;4.472;2023-04-03T15:46:59;4.55;;;2.83;;
8831;SDS011;4452;50.756;4.472;2023-04-03T15:49:26;7.85;;;2.88;;
8831;SDS011;4452;50.756;4.472;2023-04-03T15:51:52;5.60;;;2.85;;
8831;SDS011;4452;50.756;4.472;2023-04-03T15:54:18;4.22;;;2.70;;
8831;SDS011;4452;50.756;4.472;2023-04-03T15:56:44;9.73;;;2.70;;
8831;SDS011;4452;50.756;4.472;2023-04-03T15:59:10;2.80;;;2.60;;
8831;SDS011;4452;50.756;4.472;2023-04-03T16:01:36;5.45;;;2.80;;
8831;SDS011;4452;50.756;4.472;2023-04-03T16:04:03;4.38;;;2.97;;
8831;SDS011;4452;50.756;4.472;2023-04-03T16:06:30;3.10;;;2.78;;
8831;SDS011;4452;50.756;4.472;2023-04-03T16:08:56;3.58;;;2.63;;
8831;SDS011;4452;50.756;4.472;2023-04-03T16:11:23;5.35;;;2.83;;
8831;SDS011;4452;50.756;4.472;2023-04-03T16:13:51;3.80;;;2.55;;
8831;SDS011;4452;50.756;4.472;2023-04-03T16:16:16;3.35;;;2.88;;
8831;SDS011;4452;50.756;4.472;2023-04-03T16:18:42;3.17;;;2.80;;
8831;SDS011;4452;50.756;4.472;2023-04-03T16:21:08;2.70;;;2.50;;
8831;SDS011;4452;50.756;4.472;2023-04-03T16:23:34;6.35;;;3.28;;
8831;SDS011;4452;50.756;4.472;2023-04-03T16:26:00;5.15;;;2.85;;
8831;SDS011;4452;50.756;4.472;2023-04-03T16:28:26;3.97;;;2.92;;
8831;SDS011;4452;50.756;4.472;2023-04-03T16:30:51;3.10;;;2.80;;
8831;SDS011;4452;50.756;4.472;2023-04-03T16:33:17;3.13;;;2.63;;
8831;SDS011;4452;50.756;4.472;2023-04-03T16:35:46;12.32;;;3.22;;
8831;SDS011;4452;50.756;4.472;2023-04-03T16:38:13;8.00;;;3.00;;
8831;SDS011;4452;50.756;4.472;2023-04-03T16:40:39;3.30;;;3.00;;
8831;SDS011;4452;50.756;4.472;2023-04-03T16:43:05;4.13;;;2.67;;
8831;SDS011;4452;50.756;4.472;2023-04-03T16:45:31;3.72;;;2.60;;
8831;SDS011;4452;50.756;4.472;2023-04-03T16:47:56;4.47;;;3.08;;
8831;SDS011;4452;50.756;4.472;2023-04-03T16:50:22;3.08;;;2.88;;
8831;SDS011;4452;50.756;4.472;2023-04-03T16:52:48;3.97;;;2.90;;
8831;SDS011;4452;50.756;4.472;2023-04-03T16:55:14;4.65;;;3.33;;
8831;SDS011;4452;50.756;4.472;2023-04-03T16:57:39;3.80;;;3.42;;
8831;SDS011;4452;50.756;4.472;2023-04-03T17:00:05;5.45;;;3.17;;
8831;SDS011;4452;50.756;4.472;2023-04-03T17:02:32;5.57;;;2.90;;
8831;SDS011;4452;50.756;4.472;2023-04-03T17:04:57;5.13;;;2.95;;
8831;SDS011;4452;50.756;4.472;2023-04-03T17:07:24;4.35;;;2.97;;